Main page
Satellite images 15-day forecastsClimateCyclones Lightning AirportsFAQ Newsletter About
Weather : Europe Africa North America South America Asia Australia-Oceania Others
Languages Contact

Podgorica, Montenegro

latitude: 42-26N, longitude: 019-17E, elevation: 53 m


METAR: LYPG 160700Z 36012KT 9999 FEW023 SCT033 OVC080 09/M00 Q1010 NOSIG
short-TAF: out of date (12800 hours)
long-TAF: LYPG 160500Z 1606/1706 36007KT 9999 SCT040 OVC080 TX10/1613Z TN06/1704Z TEMPO 1606/1706 02018G30KT

Time: 09:14 (07:14 UTC)

Current weather observation

The report was made 14 minutes ago, at 07:00 UTC  
Wind 12 kt from north
Temperature 9°C
Humidity 53%
Pressure 1010 hPa
Visibility 10 km or more
Few clouds at a height of 2300 ft
Scattered clouds at a height of 3300 ft
Overcast at a height of 8000 ft

Change units

Forecast

The report was made 1 hour and 53 minutes ago, at 05:21 UTC  
Forecast valid from 16 at 06 UTC to 17 at 06 UTC
Wind 07 kt from north
Visibility 10 km or more
Scattered clouds at a height of 4000 ft
Overcast at a height of 8000 ft
Temporary
from 16 at 06 UTC to 17 at 06 UTC
Wind 18 kt from north/northeast with gusts up to 30 kt
The information on this site is subject to a disclaimer
Weather : Europe Africa North America South America Asia Australia-Oceania Others
Satellite images 15-day forecastsClimateCyclones Lightning AirportsFAQ Languages Contact Newsletter About